Lincoln, MI

10:39 PM EST on December 17, 2014 (GMT -0500)
RAWS BARTON CITY MI US | Change Station
CLOSE
Current Station
Personal Weather Station
Location: Barton City, MI
Elevation: 833 ft
Nearby Weather Stations
Active Advisory: Special Statement Active Notice: Record Report

Elev 833 ft 44.66 °N, 83.59 °W | Updated 53 minutes ago

Overcast
Overcast
25 °F
Feels Like 19 °F
N
5
Wind Variable Wind from NW
Gusts 13.0 mph

Today
High -- | Low -- °F
--% Chance of Precip.
Yesterday
High -- | Low -- °F
Precip. -- in
8:05 AM 4:54 PM
Waning Crescent, 17% visible
Pressure 30.06 in
Visibility 10.0 miles
Clouds Overcast 1400 ft
Windchill 19 °F
Dew Point 22 °F
Humidity 88%
Rainfall 0.14 in
Snow Depth Not available.
UV 0 out of 12
Pollen .10 out of 12
Air Quality Not available.
Flu Activity Not available.
METAR KOSC 180333Z AUTO 31005KT 10SM OVC014 M02/M04 A3006 RMK AO2 T10291043

More Conditions Fewer Conditions

Pressure 30.06 in
Visibility 10.0 miles
Clouds Overcast 1400 ft
Windchill 19 °F
Dew Point 22 °F
Humidity 88%
Rainfall 0.14 in
Snow Depth Not available.
UV 0 out of 12
Pollen .10 out of 12
Air Quality Not available.
Flu Activity Not available.
METAR KOSC 180333Z AUTO 31005KT 10SM OVC014 M02/M04 A3006 RMK AO2 T10291043

More Conditions Fewer Conditions

Nowcast | as of 10:00 PM EST on December 17, 2014

At 11 PM...cloudy. Scattered snow showers. Temperature 25. Northwest winds 12 mph. At 1 am...cloudy. Scattered snow showers. Temperature 25. Northwest winds 11 mph. At 3 am...cloudy. Scattered snow showers. Temperature 24. Northwest winds 10 mph. At 5 am...cloudy. Scattered snow showers. Temperature 24. Northwest winds 10 mph.

×

10-Day Weather Forecast

Almanac

Astronomy

Dec. 17, 2014 Rise Set
Actual Time
Civil Twilight
Nautical Twilight
Astronomical Twilight
Moon
Length of Visible Light
Length of Day
Tomorrow will be .
, % of the Moon is Illuminated

Today's Extremes

State Highs State Lows

Community

WunderPhotos

Upload Photos

1,778,877 photos uploaded!

WunderBlogs® & News

Nearby

Air Quality

  Air Quality AQ Index Pollutant
Not available.

Snow Depth

Station Depth Elevation

Earthquake Activity

City Distance Mag. Time & Date
Minimum magnitude displayed is 2.5.

Coastal Water Temperatures

Place Temperature

Nearby Weather Stations